Time;durP1;ratioP1;P1;durP2;ratioP2;P2;SDS_P1;SDS_P2;PMS_P1;PMS_P2;Temp;Humidity;BMP_temperature;BMP_pressure;BME280_temperature;BME280_humidity;BME280_pressure;Samples;Min_cycle;Max_cycle;Signal;HPM_P1;HPM_P2
2024/01/23 00:01:18;;;;;;;2.50;1.20;;;;;;;6.03;85.92;100377.16;105536;1254;69969;-47
2024/01/23 00:03:49;;;;;;;5.00;1.40;;;;;;;5.99;85.92;100380.85;105565;1256;69983;-47
2024/01/23 00:06:18;;;;;;;5.60;1.40;;;;;;;5.96;86.05;100382.48;105585;1254;73106;-46
2024/01/23 00:08:48;;;;;;;3.10;1.60;;;;;;;5.91;85.82;100384.45;105620;1255;82057;-47
2024/01/23 00:11:16;;;;;;;4.00;1.20;;;;;;;5.88;85.95;100387.29;105645;1254;71868;-47
2024/01/23 00:13:48;;;;;;;5.30;1.50;;;;;;;5.84;85.88;100383.87;105576;1255;69977;-53
2024/01/23 00:16:17;;;;;;;4.00;1.30;;;;;;;5.83;85.79;100380.44;105681;1256;70002;-49
2024/01/23 00:18:45;;;;;;;3.30;1.30;;;;;;;5.80;85.93;100380.66;105608;1257;72899;-47
2024/01/23 00:21:13;;;;;;;4.00;1.10;;;;;;;5.78;86.09;100376.19;105553;1254;82192;-46
2024/01/23 00:23:41;;;;;;;5.70;1.60;;;;;;;5.77;86.23;100376.38;105587;1253;70125;-46
2024/01/23 00:26:10;;;;;;;5.20;1.50;;;;;;;5.77;86.24;100376.73;105523;1256;69886;-47
2024/01/23 00:28:38;;;;;;;3.90;1.70;;;;;;;5.78;86.39;100382.95;105491;1254;69970;-46
2024/01/23 00:31:06;;;;;;;3.70;1.40;;;;;;;5.83;86.86;100376.80;105585;1254;73898;-46
2024/01/23 00:33:34;;;;;;;4.70;1.60;;;;;;;5.87;86.96;100380.36;105555;1257;81765;-47
2024/01/23 00:36:04;;;;;;;5.70;1.60;;;;;;;5.89;86.92;100383.10;105667;1254;71829;-46
2024/01/23 00:38:32;;;;;;;6.40;1.70;;;;;;;5.87;86.73;100386.77;105584;1255;69911;-46
2024/01/23 00:41:01;;;;;;;5.70;1.60;;;;;;;5.85;86.71;100389.94;105586;1255;69993;-46
2024/01/23 00:43:29;;;;;;;3.40;1.30;;;;;;;5.82;86.73;100387.91;105565;1256;73463;-46
2024/01/23 00:45:58;;;;;;;4.70;1.50;;;;;;;5.80;86.78;100385.51;105563;1257;81348;-47
2024/01/23 00:48:26;;;;;;;5.80;1.80;;;;;;;5.77;86.75;100388.52;105589;1258;71797;-46
2024/01/23 00:50:54;;;;;;;3.90;1.50;;;;;;;5.78;86.98;100394.40;105540;1257;70053;-47
2024/01/23 00:53:23;;;;;;;7.30;1.70;;;;;;;5.79;87.30;100401.65;105552;1254;69973;-47
2024/01/23 00:55:51;;;;;;;5.00;1.40;;;;;;;5.79;87.22;100401.99;105528;1256;73047;-46
2024/01/23 00:58:19;;;;;;;3.80;1.60;;;;;;;5.80;87.46;100414.80;105519;1257;83302;-47
2024/01/23 01:00:47;;;;;;;5.20;1.60;;;;;;;5.82;87.31;100406.64;105521;1254;72347;-47
2024/01/23 01:03:16;;;;;;;6.20;1.40;;;;;;;5.83;87.57;100409.06;105541;1255;69941;-46
2024/01/23 01:05:46;;;;;;;8.80;2.20;;;;;;;5.83;87.59;100395.70;105575;1256;69972;-47
2024/01/23 01:08:15;;;;;;;6.00;1.30;;;;;;;5.81;87.79;100400.92;105649;1254;73618;-47
2024/01/23 01:10:43;;;;;;;5.70;1.20;;;;;;;5.80;87.66;100408.92;105551;1256;81746;-47
2024/01/23 01:13:11;;;;;;;6.00;1.50;;;;;;;5.81;87.78;100417.73;105570;1257;71202;-46
2024/01/23 01:15:40;;;;;;;4.20;1.20;;;;;;;5.82;87.77;100414.80;105557;1256;69944;-46
2024/01/23 01:18:08;;;;;;;5.40;1.30;;;;;;;5.79;87.62;100417.08;105599;1254;69987;-46
2024/01/23 01:20:37;;;;;;;7.20;1.20;;;;;;;5.76;87.67;100412.46;105572;1256;73046;-46
2024/01/23 01:23:05;;;;;;;5.60;1.30;;;;;;;5.75;87.89;100407.79;105599;1257;80851;-46
2024/01/23 01:25:33;;;;;;;6.40;1.70;;;;;;;5.72;87.52;100399.88;105541;1256;70951;-46
2024/01/23 01:28:01;;;;;;;3.60;1.10;;;;;;;5.66;87.45;100400.84;105594;1256;69990;-46
2024/01/23 01:30:29;;;;;;;6.00;1.50;;;;;;;5.60;87.49;100398.86;105573;1256;69960;-46
2024/01/23 01:32:58;;;;;;;5.90;1.60;;;;;;;5.52;87.50;100404.02;105622;1252;74032;-46
2024/01/23 01:35:27;;;;;;;4.90;1.20;;;;;;;5.45;87.40;100405.00;105541;1254;81545;-47
2024/01/23 01:37:55;;;;;;;5.80;1.50;;;;;;;5.39;87.78;100409.94;105514;1254;71716;-46
2024/01/23 01:40:25;;;;;;;5.90;1.40;;;;;;;5.33;87.86;100408.81;105477;1257;69912;-47
2024/01/23 01:42:53;;;;;;;4.80;1.40;;;;;;;5.26;87.70;100403.73;105524;1257;70020;-47
2024/01/23 01:45:21;;;;;;;4.70;1.50;;;;;;;5.19;87.88;100403.16;105578;1257;74205;-46
2024/01/23 01:47:50;;;;;;;6.50;1.80;;;;;;;5.13;88.02;100405.30;105629;1256;81547;-46
2024/01/23 01:50:19;;;;;;;5.50;1.60;;;;;;;5.06;88.00;100403.85;105653;1256;72161;-52
2024/01/23 01:52:47;;;;;;;4.60;1.40;;;;;;;4.98;87.95;100410.20;105671;1254;70578;-47
2024/01/23 01:55:15;;;;;;;6.50;1.60;;;;;;;4.88;88.15;100408.60;105676;1256;69993;-47
2024/01/23 01:57:44;;;;;;;4.90;1.60;;;;;;;4.79;88.26;100409.59;105496;1252;74573;-48
2024/01/23 02:00:13;;;;;;;6.90;1.80;;;;;;;4.70;88.17;100414.55;105546;1256;81575;-47
2024/01/23 02:02:43;;;;;;;4.40;2.00;;;;;;;4.61;88.27;100416.58;105526;1256;72913;-48
2024/01/23 02:05:11;;;;;;;3.80;1.80;;;;;;;4.48;88.47;100416.73;105501;1252;69884;-47
2024/01/23 02:07:39;;;;;;;6.60;2.20;;;;;;;4.39;88.69;100417.52;105524;1254;69996;-47
2024/01/23 02:10:08;;;;;;;5.80;1.90;;;;;;;4.31;88.90;100422.81;105545;1254;73345;-48
2024/01/23 02:12:36;;;;;;;6.00;1.70;;;;;;;4.27;89.14;100423.02;105593;1255;81872;-47
2024/01/23 02:15:04;;;;;;;3.80;1.80;;;;;;;4.26;89.52;100425.45;105573;1256;71656;-48
2024/01/23 02:17:33;;;;;;;8.10;2.40;;;;;;;4.27;89.95;100434.95;105571;1252;69925;-47
2024/01/23 02:20:01;;;;;;;3.90;1.80;;;;;;;4.31;90.13;100433.54;105531;1255;69932;-47
2024/01/23 02:22:29;;;;;;;6.20;1.80;;;;;;;4.34;90.30;100434.88;105583;1253;73184;-47
2024/01/23 02:24:58;;;;;;;5.60;2.30;;;;;;;4.37;90.54;100441.25;105557;1257;81816;-48
2024/01/23 02:27:26;;;;;;;3.90;1.70;;;;;;;4.38;90.50;100436.38;105594;1256;73100;-47
2024/01/23 02:29:54;;;;;;;6.50;2.10;;;;;;;4.36;90.53;100442.30;105615;1257;69928;-47
2024/01/23 02:32:23;;;;;;;3.60;1.50;;;;;;;4.36;90.71;100447.66;105560;1254;69943;-47
2024/01/23 02:34:51;;;;;;;7.00;1.70;;;;;;;4.41;91.01;100445.52;105606;1253;72799;-48
2024/01/23 02:37:19;;;;;;;4.50;1.90;;;;;;;4.47;91.20;100449.96;105568;1255;81973;-47
2024/01/23 02:39:47;;;;;;;7.10;2.00;;;;;;;4.51;91.25;100442.31;105557;1253;70826;-48
2024/01/23 02:42:16;;;;;;;5.30;1.60;;;;;;;4.54;91.28;100442.27;105506;1257;69859;-49
2024/01/23 02:44:45;;;;;;;5.30;1.90;;;;;;;4.54;91.16;100450.41;105525;1254;69983;-48
2024/01/23 02:47:13;;;;;;;5.10;1.60;;;;;;;4.53;91.13;100450.77;105610;1253;74022;-48
2024/01/23 02:49:42;;;;;;;5.00;1.50;;;;;;;4.53;91.00;100454.23;105530;1254;83229;-47
2024/01/23 02:52:11;;;;;;;3.80;1.20;;;;;;;4.51;91.12;100453.90;105576;1252;71414;-48
2024/01/23 02:54:39;;;;;;;4.50;1.60;;;;;;;4.45;90.88;100459.48;105587;1254;69860;-47
2024/01/23 02:57:07;;;;;;;2.90;1.40;;;;;;;4.39;90.76;100456.27;105520;1256;69982;-48
2024/01/23 02:59:36;;;;;;;5.60;1.70;;;;;;;4.33;90.76;100460.84;105572;1253;72894;-47
2024/01/23 03:02:04;;;;;;;5.40;1.90;;;;;;;4.26;90.84;100459.19;105571;1253;80745;-47
2024/01/23 03:04:33;;;;;;;4.80;1.80;;;;;;;4.19;90.85;100457.69;105576;1255;72196;-47
2024/01/23 03:07:01;;;;;;;7.10;1.90;;;;;;;4.13;90.79;100463.13;105613;1253;69968;-47
2024/01/23 03:09:30;;;;;;;5.40;1.80;;;;;;;4.05;90.90;100463.53;105603;1255;69987;-48
2024/01/23 03:11:58;;;;;;;7.50;2.40;;;;;;;4.01;91.15;100462.36;105658;1254;72759;-47
2024/01/23 03:14:26;;;;;;;5.50;2.00;;;;;;;3.99;91.36;100466.35;105607;1255;82768;-47
2024/01/23 03:16:54;;;;;;;5.60;2.40;;;;;;;3.96;91.32;100476.25;105526;1253;71539;-47
2024/01/23 03:19:23;;;;;;;6.90;2.30;;;;;;;3.92;91.35;100474.38;105571;1255;70002;-48
2024/01/23 03:21:51;;;;;;;7.40;2.80;;;;;;;3.87;91.59;100472.16;105621;1254;69958;-47
2024/01/23 03:24:19;;;;;;;6.00;2.50;;;;;;;3.82;91.51;100470.48;105651;1255;74301;-48
2024/01/23 03:26:47;;;;;;;8.10;2.10;;;;;;;3.78;91.64;100473.46;105593;1256;82044;-48
2024/01/23 03:29:15;;;;;;;13.20;2.50;;;;;;;3.75;91.75;100480.40;105591;1256;72409;-47
2024/01/23 03:31:44;;;;;;;10.20;2.50;;;;;;;3.75;91.99;100486.61;105658;1256;70000;-47
2024/01/23 03:34:12;;;;;;;6.60;2.20;;;;;;;3.79;92.14;100492.11;105629;1255;70092;-47
2024/01/23 03:36:40;;;;;;;7.30;1.70;;;;;;;3.90;92.78;100496.35;105644;1252;74581;-47
2024/01/23 03:39:09;;;;;;;5.70;1.80;;;;;;;4.08;93.32;100491.52;105578;1253;81650;-47
2024/01/23 03:41:37;;;;;;;5.60;1.50;;;;;;;4.33;93.73;100494.58;105614;1256;71261;-48
2024/01/23 03:44:06;;;;;;;7.20;2.00;;;;;;;4.63;94.04;100495.99;105550;1255;69990;-48
2024/01/23 03:46:34;;;;;;;7.50;1.60;;;;;;;4.84;93.70;100492.80;105594;1255;70089;-48
2024/01/23 03:49:02;;;;;;;7.20;1.80;;;;;;;4.99;93.39;100494.01;105631;1253;72981;-48
2024/01/23 03:51:30;;;;;;;7.60;1.70;;;;;;;5.11;93.10;100495.58;105575;1256;83416;-48
2024/01/23 03:53:59;;;;;;;6.90;1.80;;;;;;;5.21;92.68;100497.01;105470;1254;72205;-48
2024/01/23 03:56:29;;;;;;;7.10;2.20;;;;;;;5.28;92.59;100498.11;105539;1256;70421;-49
2024/01/23 03:58:57;;;;;;;7.60;1.90;;;;;;;5.34;92.40;100499.95;105562;1255;69984;-48
2024/01/23 04:01:25;;;;;;;11.40;2.00;;;;;;;5.36;92.12;100494.38;105570;1252;73429;-47
2024/01/23 04:03:54;;;;;;;7.20;1.90;;;;;;;5.36;91.93;100492.11;105590;1256;81908;-47
2024/01/23 04:06:22;;;;;;;4.60;1.50;;;;;;;5.38;91.75;100488.28;105534;1256;72034;-48
2024/01/23 04:08:51;;;;;;;9.50;1.90;;;;;;;5.40;91.68;100491.38;105624;1254;69923;-49
2024/01/23 04:11:19;;;;;;;5.90;1.60;;;;;;;5.41;91.27;100493.98;105569;1256;70698;-48
2024/01/23 04:13:48;;;;;;;7.30;1.90;;;;;;;5.40;91.35;100503.85;105580;1253;73118;-48
2024/01/23 04:16:17;;;;;;;8.10;1.70;;;;;;;5.42;91.36;100506.76;105554;1252;81518;-48
2024/01/23 04:18:45;;;;;;;9.50;2.00;;;;;;;5.43;91.25;100506.41;105545;1256;72336;-48
2024/01/23 04:21:16;;;;;;;6.00;1.80;;;;;;;5.45;91.15;100508.11;105601;1254;69974;-48
2024/01/23 04:23:45;;;;;;;10.20;3.10;;;;;;;5.46;91.00;100503.25;105587;1256;69991;-49
2024/01/23 04:26:15;;;;;;;5.20;1.80;;;;;;;5.46;90.90;100508.61;105611;1253;73146;-48
2024/01/23 04:28:43;;;;;;;12.00;3.90;;;;;;;5.46;90.76;100511.55;105618;1253;80282;-49
2024/01/23 04:31:11;;;;;;;8.00;2.70;;;;;;;5.43;90.47;100509.18;105583;1255;71759;-47
2024/01/23 04:33:40;;;;;;;12.10;3.60;;;;;;;5.41;90.39;100507.83;105660;1255;70075;-46
2024/01/23 04:36:08;;;;;;;14.00;4.60;;;;;;;5.37;90.34;100517.40;105565;1256;69958;-47
2024/01/23 04:38:37;;;;;;;10.80;4.40;;;;;;;5.34;90.30;100518.83;105571;1253;73046;-47
2024/01/23 04:41:05;;;;;;;9.10;3.40;;;;;;;5.34;90.26;100520.06;105611;1253;80932;-47
2024/01/23 04:43:33;;;;;;;8.40;3.10;;;;;;;5.30;90.12;100520.27;105522;1253;72274;-47
2024/01/23 04:46:01;;;;;;;7.00;2.60;;;;;;;5.28;90.32;100524.80;105528;1253;69953;-49
2024/01/23 04:48:30;;;;;;;9.70;2.20;;;;;;;5.30;90.36;100530.84;105580;1255;69999;-47
2024/01/23 04:50:58;;;;;;;6.30;2.10;;;;;;;5.32;90.34;100527.00;105641;1253;73364;-46
2024/01/23 04:53:30;;;;;;;10.70;2.10;;;;;;;5.32;90.11;100539.48;105583;1255;81429;-48
2024/01/23 04:55:59;;;;;;;8.00;1.60;;;;;;;5.31;90.14;100536.19;105603;1255;71740;-47
2024/01/23 04:58:27;;;;;;;6.60;1.40;;;;;;;5.31;90.02;100549.37;105576;1255;69947;-47
2024/01/23 05:00:55;;;;;;;10.10;1.90;;;;;;;5.31;90.16;100540.35;105632;1252;69955;-47
2024/01/23 05:03:24;;;;;;;7.70;1.50;;;;;;;5.29;89.92;100542.13;105550;1255;74319;-51
2024/01/23 05:05:52;;;;;;;5.80;1.20;;;;;;;5.28;90.07;100546.81;105705;1252;81633;-47
2024/01/23 05:08:21;;;;;;;5.80;1.30;;;;;;;5.27;90.00;100548.39;105559;1253;72042;-47
2024/01/23 05:10:49;;;;;;;7.00;1.50;;;;;;;5.26;89.93;100553.77;105585;1256;70012;-46
2024/01/23 05:13:18;;;;;;;9.30;1.80;;;;;;;5.27;90.14;100570.23;105615;1252;69993;-47
2024/01/23 05:15:46;;;;;;;6.20;1.50;;;;;;;5.27;90.10;100570.92;105558;1252;71702;-46
2024/01/23 05:18:14;;;;;;;8.10;1.60;;;;;;;5.26;90.00;100574.90;105462;1257;82029;-47
2024/01/23 05:20:42;;;;;;;6.40;1.40;;;;;;;5.24;90.10;100574.23;105624;1255;71740;-47
2024/01/23 05:23:11;;;;;;;8.90;1.20;;;;;;;5.23;90.11;100575.30;105550;1255;69919;-46
2024/01/23 05:25:42;;;;;;;4.10;0.90;;;;;;;5.24;90.26;100573.04;105636;1256;69993;-47
2024/01/23 05:28:11;;;;;;;;;;;;;;;5.23;90.10;100576.16;105598;1253;72724;-46
2024/01/23 05:30:40;;;;;;;4.20;1.20;;;;;;;5.21;90.29;100580.33;105622;1255;82680;-47
2024/01/23 05:33:08;;;;;;;7.40;1.10;;;;;;;5.20;90.41;100581.21;105502;1253;73322;-47
2024/01/23 05:35:37;;;;;;;6.10;1.60;;;;;;;5.13;90.50;100599.66;105627;1253;69916;-50
2024/01/23 05:38:05;;;;;;;5.50;1.20;;;;;;;4.97;90.89;100608.16;105558;1255;69955;-54
2024/01/23 05:40:33;;;;;;;5.90;1.30;;;;;;;4.67;90.80;100600.83;105556;1254;72692;-51
2024/01/23 05:43:02;;;;;;;6.20;1.50;;;;;;;4.36;91.29;100590.04;105619;1256;81436;-49
2024/01/23 05:45:30;;;;;;;5.20;0.90;;;;;;;4.19;91.86;100589.14;105607;1255;71644;-48
2024/01/23 05:47:58;;;;;;;4.10;0.80;;;;;;;4.11;92.56;100595.43;105514;1253;69993;-49
2024/01/23 05:50:26;;;;;;;4.20;0.60;;;;;;;4.08;92.95;100592.70;105542;1253;69990;-49
2024/01/23 05:52:54;;;;;;;4.90;0.90;;;;;;;4.05;93.46;100597.55;105567;1254;74374;-49
2024/01/23 05:55:23;;;;;;;4.70;1.00;;;;;;;4.00;93.66;100601.73;105508;1255;80046;-47
2024/01/23 05:57:51;;;;;;;2.40;0.80;;;;;;;3.95;93.71;100605.58;105444;1256;72211;-47
2024/01/23 06:00:19;;;;;;;2.00;0.60;;;;;;;3.90;94.01;100605.08;105531;1253;69950;-47
2024/01/23 06:02:47;;;;;;;3.90;0.70;;;;;;;3.85;94.30;100604.95;105758;1256;69887;-48
2024/01/23 06:05:16;;;;;;;3.20;0.70;;;;;;;3.81;94.59;100610.15;105574;1253;73484;-48
2024/01/23 06:07:49;;;;;;;3.70;0.90;;;;;;;3.77;94.63;100619.33;105377;1255;82809;-47
2024/01/23 06:10:18;;;;;;;3.50;0.70;;;;;;;3.74;95.08;100623.67;105651;1255;72374;-49
2024/01/23 06:12:46;;;;;;;3.10;0.80;;;;;;;3.70;95.11;100620.41;105594;1253;70600;-47
2024/01/23 06:15:14;;;;;;;4.30;1.00;;;;;;;3.67;95.24;100623.38;105581;1253;71491;-49
2024/01/23 06:17:43;;;;;;;5.80;1.00;;;;;;;3.64;95.50;100631.15;105581;1255;72182;-47
2024/01/23 06:20:12;;;;;;;3.60;0.80;;;;;;;3.61;95.56;100638.95;105633;1253;82828;-48
2024/01/23 06:22:41;;;;;;;3.10;0.70;;;;;;;3.57;95.76;100648.64;105544;1255;71721;-52
2024/01/23 06:25:14;;;;;;;4.70;0.80;;;;;;;3.54;95.80;100652.64;105677;1256;69925;-47
2024/01/23 06:27:43;;;;;;;5.40;1.10;;;;;;;3.47;95.74;100664.06;105851;1255;69936;-47
2024/01/23 06:30:13;;;;;;;3.60;1.00;;;;;;;3.40;96.00;100672.38;105560;1254;73005;-47
2024/01/23 06:32:42;;;;;;;4.70;1.00;;;;;;;3.37;96.19;100676.20;105474;1253;82176;-48
2024/01/23 06:35:11;;;;;;;4.50;1.00;;;;;;;3.34;96.24;100677.40;105814;1253;70737;-48
2024/01/23 06:37:40;;;;;;;3.70;0.70;;;;;;;3.32;96.60;100681.89;105614;1252;69905;-46
2024/01/23 06:40:09;;;;;;;4.20;0.90;;;;;;;3.31;96.74;100679.66;105699;1255;69987;-50
2024/01/23 06:42:38;;;;;;;4.60;1.10;;;;;;;3.31;97.01;100689.17;105799;1253;72718;-48
2024/01/23 06:45:07;;;;;;;3.60;0.70;;;;;;;3.31;97.22;100699.52;105873;1252;82845;-51
2024/01/23 06:47:35;;;;;;;4.00;0.80;;;;;;;3.30;97.45;100704.71;105447;1254;71845;-51
2024/01/23 06:50:04;;;;;;;3.10;0.80;;;;;;;3.27;97.57;100706.80;105446;1253;70337;-49
2024/01/23 06:52:32;;;;;;;3.50;0.70;;;;;;;3.26;97.41;100713.70;105675;1256;69923;-48
2024/01/23 06:55:00;;;;;;;3.60;0.80;;;;;;;3.23;97.66;100711.64;105588;1253;73209;-49
2024/01/23 06:57:29;;;;;;;1.80;0.60;;;;;;;3.23;97.65;100712.48;105723;1254;82826;-52
2024/01/23 06:59:57;;;;;;;2.60;0.70;;;;;;;3.22;97.93;100715.44;105430;1253;73986;-50
2024/01/23 07:02:25;;;;;;;4.80;0.70;;;;;;;3.22;98.03;100712.67;105592;1257;70004;-48
2024/01/23 07:04:53;;;;;;;2.60;0.60;;;;;;;3.22;98.21;100721.30;105566;1255;69983;-49
2024/01/23 07:07:22;;;;;;;2.30;0.70;;;;;;;3.21;98.15;100716.82;105566;1253;73128;-49
2024/01/23 07:09:50;;;;;;;3.80;1.00;;;;;;;3.21;98.42;100723.04;105485;1257;80686;-49
2024/01/23 07:12:18;;;;;;;2.90;0.50;;;;;;;3.22;98.74;100734.79;105487;1257;72135;-47
2024/01/23 07:14:46;;;;;;;2.60;0.60;;;;;;;3.24;98.67;100734.94;105663;1256;69043;-48
2024/01/23 07:17:15;;;;;;;2.00;0.40;;;;;;;3.26;98.96;100741.52;105577;1254;70024;-48
2024/01/23 07:19:44;;;;;;;2.40;0.40;;;;;;;3.29;99.09;100741.15;105648;1253;73019;-49
2024/01/23 07:22:12;;;;;;;1.80;0.40;;;;;;;3.31;99.34;100738.90;105637;1256;81618;-50
2024/01/23 07:24:40;;;;;;;2.10;0.40;;;;;;;3.34;99.55;100741.84;105693;1252;71788;-47
2024/01/23 07:27:09;;;;;;;3.00;0.50;;;;;;;3.38;99.42;100751.33;105587;1256;69996;-47
2024/01/23 07:29:38;;;;;;;1.00;0.30;;;;;;;3.42;99.53;100750.98;105711;1252;69933;-47
2024/01/23 07:32:06;;;;;;;2.30;0.40;;;;;;;3.45;99.64;100754.25;105706;1253;74586;-49
2024/01/23 07:34:35;;;;;;;2.10;0.40;;;;;;;3.49;99.82;100754.92;105527;1254;81436;-48
2024/01/23 07:37:03;;;;;;;3.40;0.60;;;;;;;3.53;99.83;100764.59;105571;1253;71885;-48
2024/01/23 07:39:31;;;;;;;1.70;0.50;;;;;;;3.55;99.93;100774.09;105610;1255;69932;-48
2024/01/23 07:42:00;;;;;;;4.30;0.50;;;;;;;3.57;99.89;100788.61;105437;1255;70419;-48
2024/01/23 07:44:28;;;;;;;3.70;0.50;;;;;;;3.59;99.98;100791.54;105418;1253;71934;-48
2024/01/23 07:46:56;;;;;;;2.20;0.50;;;;;;;3.62;100.00;100791.20;105474;1255;81726;-48
2024/01/23 07:49:24;;;;;;;1.70;0.50;;;;;;;3.63;100.00;100800.00;105535;1253;71659;-48
2024/01/23 07:51:53;;;;;;;2.80;0.40;;;;;;;3.65;100.00;100810.02;105487;1255;69911;-48
2024/01/23 07:54:21;;;;;;;1.00;0.40;;;;;;;3.66;100.00;100812.26;105529;1253;70033;-48
2024/01/23 07:56:50;;;;;;;3.80;0.80;;;;;;;3.69;100.00;100814.16;105553;1253;73025;-48
2024/01/23 07:59:18;;;;;;;3.10;0.70;;;;;;;3.72;100.00;100814.49;105516;1253;80934;-49
2024/01/23 08:01:47;;;;;;;7.00;1.00;;;;;;;3.75;100.00;100815.18;105563;1253;71671;-48
2024/01/23 08:04:15;;;;;;;5.80;1.10;;;;;;;3.79;100.00;100820.36;105546;1256;69907;-49
2024/01/23 08:06:43;;;;;;;4.40;0.90;;;;;;;3.83;100.00;100828.64;105540;1253;69909;-49
2024/01/23 08:09:11;;;;;;;3.90;0.90;;;;;;;3.88;100.00;100826.03;105577;1253;72537;-48
2024/01/23 08:11:39;;;;;;;4.40;1.10;;;;;;;3.93;100.00;100837.43;105543;1255;81721;-48
2024/01/23 08:14:08;;;;;;;4.90;0.90;;;;;;;3.98;100.00;100843.13;105475;1253;71958;-47
2024/01/23 08:16:36;;;;;;;7.10;1.00;;;;;;;4.05;100.00;100851.92;105591;1255;69999;-48
2024/01/23 08:19:04;;;;;;;3.60;1.40;;;;;;;4.11;100.00;100856.91;105532;1255;70053;-49
2024/01/23 08:21:32;;;;;;;4.60;0.90;;;;;;;4.18;100.00;100859.66;105608;1253;73126;-49
2024/01/23 08:24:00;;;;;;;6.50;1.30;;;;;;;4.26;100.00;100855.48;105598;1256;81908;-49
2024/01/23 08:26:29;;;;;;;5.00;0.90;;;;;;;4.34;100.00;100849.40;105536;1255;73497;-50
2024/01/23 08:28:59;;;;;;;7.80;1.10;;;;;;;4.40;100.00;100848.16;105508;1254;69986;-49
2024/01/23 08:31:29;;;;;;;6.90;1.30;;;;;;;4.45;100.00;100857.64;105576;1255;70022;-48
2024/01/23 08:33:58;;;;;;;5.50;1.20;;;;;;;4.50;100.00;100854.70;105657;1253;73090;-49
2024/01/23 08:36:27;;;;;;;3.90;1.10;;;;;;;4.53;100.00;100857.44;105530;1253;81116;-50
2024/01/23 08:38:55;;;;;;;6.30;1.30;;;;;;;4.56;100.00;100851.71;105581;1254;71700;-48
2024/01/23 08:41:24;;;;;;;8.60;1.20;;;;;;;4.59;100.00;100861.56;105494;1256;70486;-49
2024/01/23 08:43:52;;;;;;;7.40;1.10;;;;;;;4.62;100.00;100865.53;105627;1253;69987;-49
2024/01/23 08:46:21;;;;;;;4.30;1.50;;;;;;;4.66;100.00;100868.27;105592;1253;71712;-49
2024/01/23 08:48:50;;;;;;;5.00;1.10;;;;;;;4.69;100.00;100869.48;105545;1255;81718;-49
2024/01/23 08:51:21;;;;;;;7.30;1.40;;;;;;;4.73;100.00;100879.67;105510;1253;71781;-48
2024/01/23 08:53:51;;;;;;;6.60;1.40;;;;;;;4.76;100.00;100875.67;105546;1255;70343;-49
2024/01/23 08:56:21;;;;;;;8.20;1.50;;;;;;;4.79;100.00;100882.05;105602;1253;69971;-49
2024/01/23 08:58:50;;;;;;;9.20;1.50;;;;;;;4.83;100.00;100888.27;105558;1253;72948;-49
2024/01/23 09:01:18;;;;;;;4.10;1.20;;;;;;;4.87;100.00;100897.08;105575;1255;81816;-50
2024/01/23 09:03:47;;;;;;;7.10;1.10;;;;;;;4.91;100.00;100908.30;105511;1253;72532;-50
2024/01/23 09:06:15;;;;;;;6.00;1.30;;;;;;;4.94;100.00;100908.29;105508;1255;70338;-48
2024/01/23 09:08:44;;;;;;;7.80;1.40;;;;;;;4.96;100.00;100909.48;105567;1253;70635;-50
2024/01/23 09:11:12;;;;;;;6.40;1.20;;;;;;;4.97;100.00;100915.38;105496;1252;71902;-50
2024/01/23 09:13:40;;;;;;;7.00;1.40;;;;;;;5.01;100.00;100915.70;105497;1254;82048;-50
2024/01/23 09:16:08;;;;;;;6.00;1.60;;;;;;;5.06;100.00;100915.14;105511;1255;70221;-50
2024/01/23 09:18:37;;;;;;;5.00;1.20;;;;;;;5.15;100.00;100914.40;105471;1253;69986;-51
2024/01/23 09:21:09;;;;;;;5.90;1.10;;;;;;;5.28;100.00;100918.29;105576;1253;69913;-51
2024/01/23 09:23:38;;;;;;;3.20;0.80;;;;;;;5.38;99.93;100916.84;105488;1253;73123;-49
2024/01/23 09:26:06;;;;;;;6.20;1.10;;;;;;;5.46;99.73;100921.80;105600;1253;81979;-48
2024/01/23 09:28:34;;;;;;;5.70;1.20;;;;;;;5.58;99.67;100928.30;105459;1253;71673;-49
2024/01/23 09:31:03;;;;;;;4.50;1.40;;;;;;;5.75;99.38;100928.33;105525;1255;69999;-50
2024/01/23 09:33:31;;;;;;;6.90;1.50;;;;;;;5.90;99.22;100927.66;105478;1255;69942;-49
2024/01/23 09:35:59;;;;;;;8.20;1.70;;;;;;;6.02;98.60;100932.27;105576;1256;72969;-50
2024/01/23 09:38:28;;;;;;;5.90;1.00;;;;;;;6.12;98.21;100929.58;105525;1255;82668;-49
2024/01/23 09:40:56;;;;;;;6.00;0.90;;;;;;;6.23;97.87;100932.56;105491;1253;72670;-49
2024/01/23 09:43:25;;;;;;;3.80;0.80;;;;;;;6.29;97.88;100935.46;105534;1253;69935;-48
2024/01/23 09:45:55;;;;;;;4.90;1.00;;;;;;;6.33;97.23;100940.45;105519;1256;69893;-50
2024/01/23 09:48:24;;;;;;;5.70;0.80;;;;;;;6.33;96.96;100942.02;105499;1256;74815;-49
2024/01/23 09:50:54;;;;;;;;;;;;;;;6.28;96.66;100941.21;105481;1256;81769;-50
2024/01/23 09:53:26;;;;;;;7.70;1.80;;;;;;;6.26;96.29;100946.24;105637;1253;73111;-49
2024/01/23 09:55:54;;;;;;;13.90;4.10;;;;;;;6.21;96.04;100948.38;105441;1260;69937;-48
2024/01/23 09:58:22;;;;;;;9.00;3.10;;;;;;;6.20;96.05;100950.30;105526;1255;70402;-50
2024/01/23 10:00:52;;;;;;;10.10;3.30;;;;;;;6.19;95.88;100952.40;105558;1253;73106;-50
2024/01/23 10:03:21;;;;;;;5.50;1.40;;;;;;;6.16;95.33;100949.48;105508;1255;82057;-49
2024/01/23 10:05:50;;;;;;;8.60;1.50;;;;;;;6.14;95.34;100954.37;105512;1253;74190;-50
2024/01/23 10:08:22;;;;;;;4.60;0.90;;;;;;;6.12;95.20;100949.18;105560;1257;69942;-49
2024/01/23 10:11:00;;;;;;;7.00;1.20;;;;;;;6.12;95.00;100954.38;105465;1253;69827;-50
2024/01/23 10:13:29;;;;;;;3.50;1.20;;;;;;;6.14;94.93;100958.86;105497;1253;71814;-50
2024/01/23 10:15:57;;;;;;;4.60;1.30;;;;;;;6.16;95.03;100959.55;105416;1253;81362;-49
2024/01/23 10:18:26;;;;;;;7.50;1.30;;;;;;;6.19;95.01;100964.20;105393;1258;72655;-49
2024/01/23 10:20:57;;;;;;;6.90;1.90;;;;;;;6.20;94.77;100963.48;105428;1253;69975;-50
2024/01/23 10:23:29;;;;;;;5.80;1.90;;;;;;;6.25;94.69;100962.39;105501;1258;69975;-49
2024/01/23 10:25:58;;;;;;;4.80;0.90;;;;;;;6.28;94.49;100966.38;105482;1258;74158;-50
2024/01/23 10:28:27;;;;;;;7.70;2.30;;;;;;;6.30;94.48;100974.16;105440;1257;81387;-48
2024/01/23 10:30:55;;;;;;;8.70;1.60;;;;;;;6.32;94.15;100971.70;105421;1253;72169;-49
2024/01/23 10:33:24;;;;;;;9.00;2.00;;;;;;;6.37;94.38;100975.13;105409;1256;69914;-51
2024/01/23 10:35:53;;;;;;;6.10;1.20;;;;;;;6.40;94.05;100983.60;105465;1253;69990;-50
2024/01/23 10:38:22;;;;;;;5.80;1.10;;;;;;;6.42;94.06;100977.15;105496;1253;73037;-50
2024/01/23 10:40:51;;;;;;;6.90;1.30;;;;;;;6.46;93.88;100979.55;105463;1253;80417;-50
2024/01/23 10:43:19;;;;;;;3.80;0.70;;;;;;;6.44;93.39;100979.23;105459;1253;70286;-49
2024/01/23 10:45:48;;;;;;;4.10;1.10;;;;;;;6.41;93.04;100976.48;105451;1253;69980;-49
2024/01/23 10:48:16;;;;;;;4.50;1.20;;;;;;;6.38;93.05;100976.69;105477;1253;69986;-48
2024/01/23 10:50:48;;;;;;;3.70;0.80;;;;;;;6.34;92.76;100983.14;105438;1253;74125;-49
2024/01/23 10:53:18;;;;;;;4.60;1.20;;;;;;;6.31;92.91;100974.66;105227;1252;319680;-50
2024/01/23 10:55:46;;;;;;;6.70;1.00;;;;;;;6.29;92.52;100971.56;105405;1253;71608;-53
2024/01/23 10:58:21;;;;;;;6.30;1.40;;;;;;;6.24;92.33;100968.84;105486;1252;70350;-54
2024/01/23 11:00:50;;;;;;;3.90;0.60;;;;;;;6.23;92.02;100957.91;105505;1255;69175;-54
2024/01/23 11:03:19;;;;;;;5.50;0.90;;;;;;;6.24;92.03;100966.94;105521;1256;73518;-53
2024/01/23 11:06:01;;;;;;;4.90;1.50;;;;;;;6.25;91.84;100978.73;105484;1258;83668;-51
2024/01/23 11:08:43;;;;;;;5.30;1.00;;;;;;;6.30;92.01;100991.86;105499;1253;72445;-49
2024/01/23 11:11:20;;;;;;;11.10;5.30;;;;;;;6.30;91.16;100986.48;105555;1258;69912;-49
2024/01/23 11:14:06;;;;;;;6.50;1.60;;;;;;;6.31;91.51;100984.39;105467;1253;69926;-50
2024/01/23 11:16:35;;;;;;;5.10;1.30;;;;;;;6.33;91.14;100989.41;105473;1253;71692;-49
2024/01/23 11:19:03;;;;;;;6.80;1.80;;;;;;;6.33;90.72;100995.66;105486;1258;81706;-49
2024/01/23 11:21:32;;;;;;;7.90;2.10;;;;;;;6.32;90.56;100992.19;105617;1253;71927;-49
2024/01/23 11:24:02;;;;;;;9.40;2.00;;;;;;;6.31;90.64;100990.29;105455;1253;70012;-49
2024/01/23 11:26:31;;;;;;;7.00;1.50;;;;;;;6.30;90.28;100997.59;105490;1257;70312;-49
2024/01/23 11:29:05;;;;;;;6.30;1.20;;;;;;;6.29;90.21;101009.58;105603;1258;73893;-49
2024/01/23 11:31:42;;;;;;;8.40;1.50;;;;;;;6.30;90.11;101007.48;105502;1257;81494;-51